ADDS METAR Data INFO
IDs: Format: Raw Decoded Include TAF

Data at: 0303 UTC 21 Oct 2017

KMLI 210252Z 17016G22KT 10SM CLR 20/08 A2995 RMK AO2 SLP141 T02000083 58002
KMLI 210152Z 17009KT 10SM CLR 19/07 A2997 RMK AO2 SLP146 T01890072
KMLI 210052Z 16007KT 10SM CLR 19/07 A2997 RMK AO2 SLP149 T01940067
KMLI 202352Z 14005KT 10SM CLR 18/08 A2996 RMK AO2 SLP144 T01830083 10261 20178 58009
KMLI 202252Z 16006KT 10SM CLR 21/08 A2997 RMK AO2 SLP148 T02110078
KMLI 202152Z 16008KT 10SM CLR 24/08 A2998 RMK AO2 SLP150 T02390078
KMLI 202052Z 16012G21KT 10SM CLR 25/08 A2999 RMK AO2 SLP152 T02500083 56027
KMLI 201952Z 16009KT 10SM CLR 26/09 A2999 RMK AO2 SLP154 T02560089
KMLI 201852Z 18010KT 10SM CLR 25/09 A3003 RMK AO2 SLP167 T02500089
KMLI 201752Z 21009KT 10SM CLR 24/10 A3007 RMK AO2 SLP178 T02390100 10244 20128 58022
KMLI 201652Z 19009KT 10SM CLR 23/12 A3010 RMK AO2 SLP190 T02280117
KMLI 201552Z 20009KT 10SM CLR 21/12 A3012 RMK AO2 SLP198 T02110117
KMLI 201452Z 19008KT 10SM CLR 19/11 A3013 RMK AO2 SLP202 T01890111 50003
KMLI 201352Z 19008KT 10SM CLR 16/10 A3013 RMK AO2 SLP203 T01560100
KMLI 201252Z 00000KT 10SM CLR 14/09 A3012 RMK AO2 SLP201 T01390089
KMLI 201152Z 00000KT 10SM CLR 13/09 A3012 RMK AO2 SLP201 T01280089 10161 20106 53009
KMLI 201052Z 00000KT 10SM CLR 12/08 A3011 RMK AO2 SLP195 T01170083
KMLI 200952Z AUTO 00000KT 10SM CLR 12/08 A3010 RMK AO2 SLP191 T01220083
KMLI 200852Z AUTO 00000KT 10SM CLR 13/09 A3009 RMK AO2 SLP189 T01280089 51002
KMLI 200752Z AUTO 00000KT 10SM CLR 14/09 A3009 RMK AO2 SLP188 T01390089
KMLI 200652Z AUTO 00000KT 10SM CLR 14/09 A3009 RMK AO2 SLP189 T01390089
KMLI 200552Z AUTO 19005KT 10SM CLR 16/10 A3009 RMK AO2 SLP186 T01560100 10167 20139 402440067 58004
KMLI 200452Z AUTO 16005KT 10SM CLR 14/09 A3009 RMK AO2 SLP188 T01390094
KMLI 200352Z AUTO 00000KT 10SM CLR 16/10 A3010 RMK AO2 SLP190 T01560100
KMLI 200252Z 00000KT 10SM CLR 16/10 A3010 RMK AO2 SLP192 T01560100 51001
KMLI 200152Z 12004KT 10SM CLR 14/09 A3010 RMK AO2 SLP192 T01390094
KMLI 200052Z 12005KT 10SM CLR 15/10 A3010 RMK AO2 SLP195 T01500100
KMLI 192252Z 14004KT 10SM CLR 21/11 A3010 RMK AO2 SLP192 T02110106
KMLI 192152Z 18006KT 10SM CLR 23/10 A3009 RMK AO2 SLP190 T02330100
KMLI 192052Z 13008KT 10SM CLR 24/08 A3011 RMK AO2 SLP193 T02440078 56018
KMLI 191952Z 14008KT 10SM CLR 23/06 A3011 RMK AO2 SLP196 T02330056
KMLI 191852Z 12008KT 10SM CLR 23/02 A3014 RMK AO2 SLP204 T02280017
KMLI 191752Z 08008KT 10SM CLR 22/03 A3016 RMK AO2 SLP212 T02170028 10222 20067 58003
KMLI 191652Z 10009KT 10SM CLR 21/04 A3018 RMK AO2 SLP217 T02060039
KMLI 191552Z 08009KT 10SM CLR 18/06 A3017 RMK AO2 SLP216 T01830056